createdAt,value
2018-07-28T00:00:49.397Z,98567.05
2018-07-28T00:03:17.984Z,98568.29
2018-07-28T00:05:46.844Z,98573.16
2018-07-28T00:08:15.556Z,98571.78
2018-07-28T00:10:44.121Z,98565.66
2018-07-28T00:13:12.675Z,98558.64
2018-07-28T00:15:41.236Z,98565.98
2018-07-28T00:18:09.763Z,98559.72
2018-07-28T00:20:38.331Z,98568.02
2018-07-28T00:23:06.928Z,98572.45
2018-07-28T00:25:38.989Z,98595.78
2018-07-28T00:28:08.197Z,98631.03
2018-07-28T00:30:36.760Z,98622.08
2018-07-28T00:33:05.397Z,98623.73
2018-07-28T00:35:33.948Z,98615.02
2018-07-28T00:38:02.452Z,98613.91
2018-07-28T00:40:31.001Z,98608.41
2018-07-28T00:42:59.572Z,98607.13
2018-07-28T00:45:28.488Z,98601.43
2018-07-28T00:47:57.008Z,98612.48
2018-07-28T00:50:25.544Z,98611.31
2018-07-28T00:52:54.069Z,98606.63
2018-07-28T00:55:22.608Z,98601.64
2018-07-28T00:57:51.176Z,98595.13
2018-07-28T01:00:20.224Z,98590.04
2018-07-28T01:02:48.757Z,98584.33
2018-07-28T01:05:17.301Z,98577.55
2018-07-28T01:07:45.821Z,98574.06
2018-07-28T01:10:14.416Z,98571.56
2018-07-28T01:12:42.949Z,98566.89
2018-07-28T01:15:12.769Z,98570.14
2018-07-28T01:17:41.518Z,98575.58
2018-07-28T01:20:11.673Z,98575.75
2018-07-28T01:22:41.104Z,98568.52
2018-07-28T01:25:11.304Z,98573.55
2018-07-28T01:27:40.555Z,98573.20
2018-07-28T01:30:11.423Z,98565.39
2018-07-28T01:32:40.024Z,98560.61
2018-07-28T01:35:09.368Z,98561.05
2018-07-28T01:37:38.068Z,98561.88
2018-07-28T01:40:07.025Z,98554.20
2018-07-28T01:42:35.584Z,98540.97
2018-07-28T01:45:04.280Z,98550.50
2018-07-28T01:47:32.809Z,98545.86
2018-07-28T01:50:01.411Z,98537.32
2018-07-28T01:52:29.961Z,98534.55
2018-07-28T01:54:59.609Z,98536.24
2018-07-28T01:57:28.160Z,98533.36
2018-07-28T01:59:56.721Z,98525.75
2018-07-28T02:02:25.316Z,98532.88
2018-07-28T02:04:53.868Z,98529.63
2018-07-28T02:07:22.440Z,98527.91
2018-07-28T02:09:50.957Z,98524.35
2018-07-28T02:12:19.968Z,98527.32
2018-07-28T02:14:48.598Z,98518.73
2018-07-28T02:17:17.236Z,98511.39
2018-07-28T02:19:45.924Z,98507.39
2018-07-28T02:22:14.536Z,98510.75
2018-07-28T02:24:43.096Z,98508.75
2018-07-28T02:27:11.685Z,98500.31
2018-07-28T02:29:40.237Z,98503.38
2018-07-28T02:32:08.850Z,98489.48
2018-07-28T02:34:42.384Z,98483.02
2018-07-28T02:37:11.149Z,98470.94
2018-07-28T02:39:39.680Z,98466.48
2018-07-28T02:42:08.334Z,98457.41
2018-07-28T02:44:36.859Z,98444.22
2018-07-28T02:47:05.631Z,98441.28
2018-07-28T02:49:34.181Z,98437.19
2018-07-28T02:52:02.749Z,98430.55
2018-07-28T02:54:31.301Z,98507.79
2018-07-28T02:56:59.885Z,98509.02
2018-07-28T02:59:28.457Z,98468.52
2018-07-28T03:01:57.036Z,98485.54
2018-07-28T03:04:25.592Z,98488.30
2018-07-28T03:06:54.152Z,98511.25
2018-07-28T03:09:22.794Z,98508.73
2018-07-28T03:11:51.368Z,98504.41
2018-07-28T03:14:19.912Z,98499.47
2018-07-28T03:16:48.865Z,98498.82
2018-07-28T03:19:17.409Z,98499.67
2018-07-28T03:21:45.973Z,98476.25
2018-07-28T03:24:14.644Z,98493.93
2018-07-28T03:26:43.209Z,98486.20
2018-07-28T03:29:11.764Z,98488.30
2018-07-28T03:31:40.316Z,98492.97
2018-07-28T03:34:08.936Z,98494.51
2018-07-28T03:36:37.497Z,98493.44
2018-07-28T03:39:08.792Z,98467.20
2018-07-28T03:41:37.672Z,98452.68
2018-07-28T03:44:06.352Z,98447.40
2018-07-28T03:46:35.292Z,98445.09
2018-07-28T03:49:04.245Z,98465.12
2018-07-28T03:51:32.816Z,98471.19
2018-07-28T03:54:01.348Z,98494.87
2018-07-28T04:02:34.929Z,98491.48
2018-07-28T04:05:03.524Z,98482.20
2018-07-28T04:07:32.087Z,98499.78
2018-07-28T04:10:00.984Z,98505.36
2018-07-28T04:13:11.613Z,98500.69
2018-07-28T04:15:40.240Z,98486.59
2018-07-28T04:18:08.838Z,98480.20
2018-07-28T04:20:37.365Z,98488.39
2018-07-28T04:23:06.087Z,98490.33
2018-07-28T04:25:34.630Z,98474.03
2018-07-28T04:28:03.196Z,98478.64
2018-07-28T04:30:31.761Z,98482.44
2018-07-28T04:33:01.052Z,98484.66
2018-07-28T04:35:29.578Z,98498.69
2018-07-28T04:37:58.137Z,98500.42
2018-07-28T04:40:26.696Z,98507.93
2018-07-28T04:42:55.292Z,98530.56
2018-07-28T04:45:23.840Z,98544.80
2018-07-28T04:47:52.745Z,98548.23
2018-07-28T04:50:21.279Z,98569.30
2018-07-28T04:52:49.855Z,98580.34
2018-07-28T04:55:18.446Z,98603.61
2018-07-28T04:57:46.996Z,98602.59
2018-07-28T05:00:15.564Z,98596.47
2018-07-28T05:02:44.147Z,98582.41
2018-07-28T05:05:13.056Z,98571.38
2018-07-28T05:07:41.731Z,98584.27
2018-07-28T05:10:10.680Z,98592.09
2018-07-28T05:12:39.686Z,98589.77
2018-07-28T05:15:08.416Z,98584.36
2018-07-28T05:17:36.975Z,98581.72
2018-07-28T05:20:06.011Z,98574.59
2018-07-28T05:22:34.569Z,98570.84
2018-07-28T05:25:03.108Z,98580.02
2018-07-28T05:27:31.665Z,98584.05
2018-07-28T05:30:00.265Z,98581.28
2018-07-28T05:32:29.124Z,98576.83
2018-07-28T05:34:57.680Z,98592.89
2018-07-28T05:37:26.212Z,98567.78
2018-07-28T05:39:54.968Z,98581.27
2018-07-28T05:42:23.520Z,98578.91
2018-07-28T05:44:52.092Z,98576.07
2018-07-28T05:47:20.616Z,98570.88
2018-07-28T05:49:49.164Z,98574.11
2018-07-28T05:52:17.684Z,98575.35
2018-07-28T05:54:46.249Z,98578.16
2018-07-28T05:57:14.813Z,98572.18
2018-07-28T05:59:43.394Z,98573.74
2018-07-28T06:02:12.044Z,98568.20
2018-07-28T06:04:40.553Z,98568.73
2018-07-28T06:07:09.145Z,98563.95
2018-07-28T06:09:37.730Z,98568.28
2018-07-28T06:12:06.274Z,98576.76
2018-07-28T06:14:34.841Z,98582.34
2018-07-28T06:17:03.388Z,98587.85
2018-07-28T06:19:31.941Z,98586.36
2018-07-28T06:22:00.534Z,98584.16
2018-07-28T06:24:29.489Z,98578.75
2018-07-28T06:26:58.022Z,98578.88
2018-07-28T06:29:26.588Z,98586.26
2018-07-28T06:31:55.405Z,98583.36
2018-07-28T06:34:23.949Z,98594.73
2018-07-28T06:36:52.492Z,98598.04
2018-07-28T06:39:21.133Z,98599.28
2018-07-28T06:41:49.712Z,98602.39
2018-07-28T06:44:20.795Z,98593.53
2018-07-28T06:46:49.424Z,98597.80
2018-07-28T06:49:17.988Z,98588.23
2018-07-28T06:51:46.538Z,98599.58
2018-07-28T06:54:15.165Z,98602.82
2018-07-28T06:56:43.691Z,98605.49
2018-07-28T06:59:12.413Z,98607.41
2018-07-28T07:01:41.236Z,98608.95
2018-07-28T07:04:09.796Z,98602.30
2018-07-28T07:06:38.329Z,98611.67
2018-07-28T07:09:09.804Z,98614.00
2018-07-28T07:11:38.439Z,98616.35
2018-07-28T07:14:07.090Z,98620.19
2018-07-28T07:16:36.371Z,98622.95
2018-07-28T07:19:04.995Z,98627.70
2018-07-28T07:21:33.620Z,98639.70
2018-07-28T07:24:02.216Z,98640.86
2018-07-28T07:26:30.760Z,98634.55
2018-07-28T07:28:59.312Z,98647.17
2018-07-28T07:31:27.876Z,98642.28
2018-07-28T07:33:56.454Z,98645.83
2018-07-28T07:36:25.016Z,98636.65
2018-07-28T07:38:53.546Z,98630.34
2018-07-28T07:41:22.156Z,98639.30
2018-07-28T07:43:50.796Z,98648.97
2018-07-28T07:46:19.357Z,98654.95
2018-07-28T07:48:48.273Z,98639.80
2018-07-28T07:51:16.880Z,98637.98
2018-07-28T07:53:45.406Z,98650.64
2018-07-28T07:56:20.917Z,98648.25
2018-07-28T07:58:49.739Z,98645.15
2018-07-28T08:01:18.304Z,98651.05
2018-07-28T08:03:49.751Z,98645.09
2018-07-28T08:06:18.360Z,98649.12
2018-07-28T08:08:47.012Z,98648.63
2018-07-28T08:11:15.776Z,98640.44
2018-07-28T08:13:46.047Z,98644.13
2018-07-28T08:16:14.799Z,98646.40
2018-07-28T08:18:43.342Z,98647.20
2018-07-28T08:21:11.969Z,98644.31
2018-07-28T08:23:46.509Z,98637.73
2018-07-28T08:26:19.095Z,98633.68
2018-07-28T08:28:47.942Z,98645.78
2018-07-28T08:31:16.684Z,98641.92
2018-07-28T08:33:50.523Z,98641.98
2018-07-28T08:36:19.355Z,98644.87
2018-07-28T08:38:47.912Z,98638.07
2018-07-28T08:41:17.749Z,98638.48
2018-07-28T08:43:48.275Z,98651.22
2018-07-28T08:46:16.847Z,98655.85
2018-07-28T08:48:46.784Z,98665.84
2018-07-28T08:51:16.286Z,98657.80
2018-07-28T08:53:47.144Z,98661.03
2018-07-28T08:56:15.707Z,98656.03
2018-07-28T08:58:44.263Z,98666.69
2018-07-28T09:01:12.832Z,98664.70
2018-07-28T09:03:42.632Z,98662.47
2018-07-28T09:06:11.368Z,98657.45
2018-07-28T09:08:39.928Z,98658.71
2018-07-28T09:11:08.529Z,98666.74
2018-07-28T09:13:37.614Z,98673.77
2018-07-28T09:16:06.291Z,98670.65
2018-07-28T09:18:34.816Z,98670.75
2018-07-28T09:21:03.502Z,98672.05
2018-07-28T09:23:32.060Z,98664.27
2018-07-28T09:26:00.615Z,98659.81
2018-07-28T09:28:29.163Z,98660.78
2018-07-28T09:30:57.749Z,98663.73
2018-07-28T09:33:26.292Z,98662.84
2018-07-28T09:35:54.885Z,98668.33
2018-07-28T09:38:23.440Z,98680.14
2018-07-28T09:40:52.041Z,98679.57
2018-07-28T09:43:20.613Z,98674.39
2018-07-28T09:45:49.190Z,98678.78
2018-07-28T09:48:17.733Z,98680.53
2018-07-28T09:50:46.457Z,98688.58
2018-07-28T09:53:20.503Z,98681.86
2018-07-28T09:55:51.364Z,98687.36
2018-07-28T09:58:22.629Z,98705.27
2018-07-28T10:00:59.401Z,98706.02
2018-07-28T10:03:30.016Z,98703.75
2018-07-28T10:06:00.506Z,98715.87
2018-07-28T10:08:34.902Z,98701.64
2018-07-28T10:11:08.308Z,98709.84
2018-07-28T10:13:43.279Z,98700.04
2018-07-28T10:16:17.392Z,98713.77
2018-07-28T10:18:49.578Z,98711.89
2018-07-28T10:21:21.309Z,98709.00
2018-07-28T10:23:52.164Z,98717.32
2018-07-28T10:26:23.476Z,98721.22
2018-07-28T10:28:53.372Z,98713.03
2018-07-28T10:31:28.452Z,98716.34
2018-07-28T10:34:03.146Z,98726.23
2018-07-28T10:36:32.766Z,98725.19
2018-07-28T10:39:04.061Z,98715.72
2018-07-28T10:41:38.830Z,98722.59
2018-07-28T10:44:11.079Z,98720.83
2018-07-28T10:46:41.599Z,98727.84
2018-07-28T10:49:15.353Z,98720.39
2018-07-28T10:51:51.430Z,98717.82
2018-07-28T10:54:28.738Z,98720.87
2018-07-28T10:57:02.854Z,98722.88
2018-07-28T10:59:35.059Z,98741.12
2018-07-28T11:02:09.106Z,98713.17
2018-07-28T11:04:39.482Z,98724.41
2018-07-28T11:07:12.968Z,98721.64
2018-07-28T11:09:43.668Z,98725.45
2018-07-28T11:12:12.878Z,98730.25
2018-07-28T11:14:42.812Z,98728.52
2018-07-28T11:17:16.191Z,98733.62
2018-07-28T11:19:56.076Z,98732.83
2018-07-28T11:22:28.851Z,98755.25
2018-07-28T11:25:01.925Z,98731.62
2018-07-28T11:27:39.393Z,98722.59
2018-07-28T11:30:13.038Z,98738.66
2018-07-28T11:32:56.416Z,98734.89
2018-07-28T11:35:36.167Z,98724.48
2018-07-28T11:38:21.135Z,98728.46
2018-07-28T11:41:00.857Z,98730.56
2018-07-28T11:43:41.494Z,98731.38
2018-07-28T11:46:10.065Z,98740.27
2018-07-28T11:48:38.837Z,98741.28
2018-07-28T11:51:14.009Z,98746.72
2018-07-28T11:53:42.713Z,98738.34
2018-07-28T11:56:11.922Z,98738.09
2018-07-28T11:58:41.649Z,98735.55
2018-07-28T12:01:10.216Z,98740.95
2018-07-28T12:03:41.909Z,98746.44
2018-07-28T12:06:14.533Z,98746.59
2018-07-28T12:08:50.796Z,98735.58
2018-07-28T12:11:26.164Z,98747.58
2018-07-28T12:14:07.898Z,98742.95
2018-07-28T12:16:42.787Z,98750.50
2018-07-28T12:19:15.523Z,98744.84
2018-07-28T12:21:53.397Z,98763.32
2018-07-28T12:24:22.330Z,98762.34
2018-07-28T12:26:52.222Z,98752.22
2018-07-28T12:29:20.776Z,98758.20
2018-07-28T12:31:51.194Z,98750.83
2018-07-28T12:34:19.827Z,98756.69
2018-07-28T12:36:53.949Z,98754.80
2018-07-28T12:39:28.941Z,98763.34
2018-07-28T12:42:04.717Z,98762.97
2018-07-28T12:44:44.967Z,98752.84
2018-07-28T12:47:24.630Z,98765.80
2018-07-28T12:49:59.474Z,98755.86
2018-07-28T12:52:36.237Z,98763.19
2018-07-28T12:55:05.369Z,98753.79
2018-07-28T12:57:38.398Z,98766.88
2018-07-28T13:00:07.334Z,98756.90
2018-07-28T13:02:40.031Z,98761.48
2018-07-28T13:05:09.587Z,98730.00
2018-07-28T13:07:38.604Z,98754.28
2018-07-28T13:10:16.163Z,98767.61
2018-07-28T13:12:44.913Z,98763.34
2018-07-28T13:15:13.875Z,98776.53
2018-07-28T13:17:49.812Z,98772.34
2018-07-28T13:20:23.170Z,98769.66
2018-07-28T13:22:53.462Z,98766.45
2018-07-28T13:25:24.192Z,98778.14
2018-07-28T13:27:53.031Z,98773.20
2018-07-28T13:30:21.557Z,98772.16
2018-07-28T13:32:51.396Z,98767.20
2018-07-28T13:35:20.184Z,98774.03
2018-07-28T13:37:48.781Z,98780.08
2018-07-28T13:40:19.482Z,98788.58
2018-07-28T13:42:48.600Z,98781.56
2018-07-28T13:45:18.296Z,98786.92
2018-07-28T13:47:47.313Z,98795.38
2018-07-28T13:50:19.061Z,98782.41
2018-07-28T13:52:47.929Z,98783.56
2018-07-28T13:55:16.781Z,98790.72
2018-07-28T13:57:45.385Z,98779.91
2018-07-28T14:00:13.936Z,98785.80
2018-07-28T14:02:42.595Z,98776.27
2018-07-28T14:05:16.897Z,98774.33
2018-07-28T14:07:45.526Z,98792.94
2018-07-28T14:10:14.097Z,98795.92
2018-07-28T14:12:42.660Z,98774.59
2018-07-28T14:15:11.240Z,98800.52
2018-07-28T14:17:39.864Z,98798.80
2018-07-28T14:20:08.393Z,98798.83
2018-07-28T14:22:37.469Z,98794.91
2018-07-28T14:25:06.749Z,98793.90
2018-07-28T14:27:35.455Z,98785.84
2018-07-28T14:30:04.097Z,98785.17
2018-07-28T14:32:32.672Z,98788.98
2018-07-28T14:35:01.241Z,98779.84
2018-07-28T14:37:29.784Z,98799.67
2018-07-28T14:39:58.417Z,98819.55
2018-07-28T14:42:27.145Z,98807.07
2018-07-28T14:44:56.764Z,98814.06
2018-07-28T14:47:25.388Z,98809.08
2018-07-28T14:49:56.891Z,98826.31
2018-07-28T14:52:25.959Z,98824.57
2018-07-28T14:54:55.314Z,98834.48
2018-07-28T14:57:30.777Z,98816.91
2018-07-28T15:00:08.337Z,98849.80
2018-07-28T15:02:38.121Z,98825.44
2018-07-28T15:05:07.180Z,98831.96
2018-07-28T15:07:35.728Z,98830.16
2018-07-28T15:10:05.948Z,98832.47
2018-07-28T15:12:41.127Z,98828.06
2018-07-28T15:15:10.050Z,98826.75
2018-07-28T15:17:38.581Z,98839.34
2018-07-28T15:20:07.190Z,98834.13
2018-07-28T15:22:35.841Z,98839.97
2018-07-28T15:25:04.455Z,98835.91
2018-07-28T15:27:33.001Z,98841.82
2018-07-28T15:30:02.212Z,98840.72
2018-07-28T15:32:38.612Z,98845.31
2018-07-28T15:35:14.469Z,98843.92
2018-07-28T15:37:49.267Z,98855.52
2018-07-28T15:40:24.797Z,98841.17
2018-07-28T15:42:59.882Z,98871.56
2018-07-28T15:45:34.688Z,98851.59
2018-07-28T15:48:09.830Z,98855.25
2018-07-28T15:50:42.888Z,98856.13
2018-07-28T15:53:17.259Z,98847.75
2018-07-28T15:55:52.853Z,98863.14
2018-07-28T15:58:27.326Z,98859.63
2018-07-28T16:01:04.024Z,98855.27
2018-07-28T16:03:38.950Z,98865.26
2018-07-28T16:06:14.028Z,98864.55
2018-07-28T16:08:51.762Z,98873.69
2018-07-28T16:11:25.644Z,98865.14
2018-07-28T16:14:00.387Z,98867.97
2018-07-28T16:16:35.032Z,98858.98
2018-07-28T16:19:10.366Z,98869.02
2018-07-28T16:21:45.191Z,98853.70
2018-07-28T16:24:20.013Z,98859.81
2018-07-28T16:26:54.639Z,98846.95
2018-07-28T16:29:29.709Z,98845.20
2018-07-28T16:32:03.873Z,98858.12
2018-07-28T16:34:40.100Z,98853.96
2018-07-28T16:37:15.335Z,98854.84
2018-07-28T16:39:50.744Z,98857.55
2018-07-28T16:42:26.441Z,98868.16
2018-07-28T16:45:01.250Z,98881.20
2018-07-28T16:47:34.411Z,98867.40
2018-07-28T16:50:08.177Z,98883.23
2018-07-28T16:52:43.117Z,98862.44
2018-07-28T16:55:16.274Z,98883.95
2018-07-28T16:57:49.018Z,98879.23
2018-07-28T17:00:24.665Z,98878.84
2018-07-28T17:02:56.062Z,98894.45
2018-07-28T17:05:28.626Z,98884.93
2018-07-28T17:07:59.918Z,98891.23
2018-07-28T17:10:34.842Z,98884.33
2018-07-28T17:13:09.604Z,98898.00
2018-07-28T17:15:42.372Z,98897.13
2018-07-28T17:18:15.696Z,98904.44
2018-07-28T17:20:44.572Z,98895.36
2018-07-28T17:23:14.132Z,98906.66
2018-07-28T17:25:43.243Z,98907.08
2018-07-28T17:28:11.893Z,98910.30
2018-07-28T17:30:40.524Z,98932.52
2018-07-28T17:33:14.871Z,98939.06
2018-07-28T17:35:43.571Z,98935.98
2018-07-28T17:38:12.097Z,98942.64
2018-07-28T17:40:41.833Z,98934.50
2018-07-28T17:43:10.477Z,98935.36
2018-07-28T17:45:40.125Z,98932.27
2018-07-28T17:48:09.779Z,98939.06
2018-07-28T17:50:39.710Z,98945.39
2018-07-28T17:53:08.601Z,98947.73
2018-07-28T17:55:37.364Z,98945.99
2018-07-28T17:58:05.938Z,98951.88
2018-07-28T18:00:34.505Z,98954.75
2018-07-28T18:03:03.244Z,98956.23
2018-07-28T18:05:31.801Z,98957.44
2018-07-28T18:08:00.312Z,98953.88
2018-07-28T18:10:28.876Z,98954.61
2018-07-28T18:12:58.524Z,98951.59
2018-07-28T18:15:27.393Z,98962.41
2018-07-28T18:17:55.954Z,98969.16
2018-07-28T18:20:27.720Z,98960.47
2018-07-28T18:22:57.908Z,98958.81
2018-07-28T18:25:26.759Z,98956.58
2018-07-28T18:27:55.501Z,98968.85
2018-07-28T18:30:24.248Z,98968.59
2018-07-28T18:32:54.884Z,98971.91
2018-07-28T18:35:23.417Z,98979.84
2018-07-28T18:37:53.623Z,98973.27
2018-07-28T18:40:24.879Z,98977.46
2018-07-28T18:42:54.451Z,98985.45
2018-07-28T18:45:23.204Z,98989.87
2018-07-28T18:47:52.028Z,98993.27
2018-07-28T18:50:21.068Z,98991.73
2018-07-28T18:52:49.654Z,98998.80
2018-07-28T18:55:18.206Z,99004.17
2018-07-28T18:57:47.946Z,99007.32
2018-07-28T19:00:16.556Z,99012.54
2018-07-28T19:02:45.164Z,99007.25
2018-07-28T19:05:13.783Z,99012.14
2018-07-28T19:07:43.553Z,99016.05
2018-07-28T19:10:13.224Z,99014.47
2018-07-28T19:12:48.619Z,99016.38
2018-07-28T19:15:17.228Z,99017.08
2018-07-28T19:17:51.056Z,99020.16
2018-07-28T19:20:19.584Z,99022.58
2018-07-28T19:22:54.066Z,99030.83
2018-07-28T19:25:23.999Z,99032.97
2018-07-28T19:27:58.578Z,99024.73
2018-07-28T19:30:27.113Z,99031.05
2018-07-28T19:32:55.671Z,99031.96
2018-07-28T19:35:27.936Z,99027.94
2018-07-28T19:37:57.256Z,99035.25
2018-07-28T19:40:25.962Z,99036.20
2018-07-28T19:42:54.883Z,99038.48
2018-07-28T19:45:23.684Z,99039.63
2018-07-28T19:47:52.265Z,99045.74
2018-07-28T19:50:20.797Z,99041.45
2018-07-28T19:52:49.356Z,99048.91
2018-07-28T19:55:17.880Z,99051.88
2018-07-28T19:57:46.590Z,99051.41
2018-07-28T20:00:15.121Z,99051.18
2018-07-28T20:02:43.684Z,99056.44
2018-07-28T20:05:12.232Z,99056.02
2018-07-28T20:07:41.092Z,99058.10
2018-07-28T20:10:10.656Z,99058.95
2018-07-28T20:12:39.752Z,99063.31
2018-07-28T20:15:18.723Z,99068.41
2018-07-28T20:17:47.721Z,99074.55
2018-07-28T20:20:16.720Z,99078.84
2018-07-28T20:22:45.276Z,99077.09
2018-07-28T20:25:13.869Z,99082.55
2018-07-28T20:27:43.200Z,99080.92
2018-07-28T20:30:14.228Z,99087.00
2018-07-28T20:32:44.705Z,99092.97
2018-07-28T20:35:13.676Z,99089.70
2018-07-28T20:37:42.256Z,99085.19
2018-07-28T20:40:10.793Z,99094.47
2018-07-28T20:42:39.401Z,99091.50
2018-07-28T20:45:07.980Z,99093.36
2018-07-28T20:47:36.544Z,99095.81
2018-07-28T20:50:05.274Z,99090.05
2018-07-28T20:52:34.157Z,99094.47
2018-07-28T20:55:05.022Z,99099.80
2018-07-28T20:57:33.835Z,99100.61
2018-07-28T21:00:03.041Z,99099.97
2018-07-28T21:02:31.569Z,99102.17
2018-07-28T21:05:00.128Z,99106.66
2018-07-28T21:07:28.660Z,99097.75
2018-07-28T21:09:57.302Z,99096.08
2018-07-28T21:12:26.096Z,99093.49
2018-07-28T21:14:54.956Z,99100.66
2018-07-28T21:17:23.880Z,99102.11
2018-07-28T21:19:52.448Z,99095.17
2018-07-28T21:22:21.225Z,99095.97
2018-07-28T21:24:50.016Z,99109.84
2018-07-28T21:27:18.559Z,99105.83
2018-07-28T21:29:47.196Z,99100.85
2018-07-28T21:32:15.728Z,99104.91
2018-07-28T21:34:44.294Z,99106.44
2018-07-28T21:37:12.813Z,99104.20
2018-07-28T21:39:41.369Z,99109.94
2018-07-28T21:42:09.964Z,99110.09
2018-07-28T21:44:38.540Z,99112.61
2018-07-28T21:47:07.096Z,99111.77
2018-07-28T21:49:36.234Z,99114.61
2018-07-28T21:52:04.764Z,99107.42
2018-07-28T21:54:33.325Z,99116.80
2018-07-28T21:57:01.897Z,99116.63
2018-07-28T21:59:30.512Z,99124.30
2018-07-28T22:01:59.036Z,99120.60
2018-07-28T22:04:37.871Z,99123.11
2018-07-28T22:07:06.684Z,99122.11
2018-07-28T22:09:35.364Z,99126.95
2018-07-28T22:12:04.765Z,99129.91
2018-07-28T22:14:33.330Z,99140.18
2018-07-28T22:17:01.869Z,99139.48
2018-07-28T22:19:30.500Z,99139.35
2018-07-28T22:21:59.041Z,99147.30
2018-07-28T22:24:27.661Z,99144.89
2018-07-28T22:26:56.738Z,99145.03
2018-07-28T22:29:25.372Z,99135.67
2018-07-28T22:31:53.892Z,99146.70
2018-07-28T22:34:22.444Z,99144.55
2018-07-28T22:36:50.993Z,99143.89
2018-07-28T22:39:19.585Z,99153.88
2018-07-28T22:41:48.191Z,99150.39
2018-07-28T22:44:16.752Z,99148.84
2018-07-28T22:46:45.309Z,99149.16
2018-07-28T22:49:13.876Z,99151.50
2018-07-28T22:51:42.437Z,99153.83
2018-07-28T22:54:11.013Z,99142.60
2018-07-28T22:56:39.545Z,99150.09
2018-07-28T22:59:08.141Z,99152.19
2018-07-28T23:01:37.029Z,99155.92
2018-07-28T23:04:05.556Z,99154.56
2018-07-28T23:06:34.119Z,99154.56
2018-07-28T23:09:02.687Z,99158.32
2018-07-28T23:11:31.269Z,99154.36
2018-07-28T23:13:59.808Z,99152.95
2018-07-28T23:16:28.374Z,99151.61
2018-07-28T23:18:56.931Z,99162.04
2018-07-28T23:21:25.496Z,99158.70
2018-07-28T23:23:54.051Z,99157.92
2018-07-28T23:26:22.627Z,99151.89
2018-07-28T23:28:51.178Z,99153.16
2018-07-28T23:31:19.776Z,99160.98
2018-07-28T23:33:48.313Z,99160.83
2018-07-28T23:36:16.863Z,99164.66
2018-07-28T23:38:45.397Z,99172.75
2018-07-28T23:41:13.981Z,99176.38
2018-07-28T23:43:42.568Z,99183.75
2018-07-28T23:46:11.167Z,99182.20
2018-07-28T23:48:39.705Z,99180.68
2018-07-28T23:51:08.276Z,99184.46
2018-07-28T23:53:36.828Z,99191.13
2018-07-28T23:56:05.475Z,99188.83
2018-07-28T23:58:34.006Z,99196.16
